sensor_id;sensor_type;location;lat;lon;timestamp;temperature;humidity
14531;DHT22;7352;50.866;4.366;2023-08-08T00:00:56;16.90;99.90
14531;DHT22;7352;50.866;4.366;2023-08-08T00:03:24;16.70;99.90
14531;DHT22;7352;50.866;4.366;2023-08-08T00:05:51;16.70;99.90
14531;DHT22;7352;50.866;4.366;2023-08-08T00:08:20;16.60;99.90
14531;DHT22;7352;50.866;4.366;2023-08-08T00:10:47;16.60;99.90
14531;DHT22;7352;50.866;4.366;2023-08-08T00:13:15;16.60;99.90
14531;DHT22;7352;50.866;4.366;2023-08-08T00:15:48;16.50;99.90
14531;DHT22;7352;50.866;4.366;2023-08-08T00:18:31;16.40;99.90
14531;DHT22;7352;50.866;4.366;2023-08-08T00:21:15;16.30;99.90
14531;DHT22;7352;50.866;4.366;2023-08-08T00:23:44;16.30;99.90
14531;DHT22;7352;50.866;4.366;2023-08-08T00:26:11;16.30;99.90
14531;DHT22;7352;50.866;4.366;2023-08-08T00:28:40;16.30;99.90
14531;DHT22;7352;50.866;4.366;2023-08-08T00:31:08;16.30;99.90
14531;DHT22;7352;50.866;4.366;2023-08-08T00:33:35;16.30;99.90
14531;DHT22;7352;50.866;4.366;2023-08-08T00:36:02;16.30;99.90
14531;DHT22;7352;50.866;4.366;2023-08-08T00:38:29;16.30;99.90
14531;DHT22;7352;50.866;4.366;2023-08-08T00:40:58;16.30;99.90
14531;DHT22;7352;50.866;4.366;2023-08-08T00:43:27;16.40;99.90
14531;DHT22;7352;50.866;4.366;2023-08-08T00:45:54;16.40;99.90
14531;DHT22;7352;50.866;4.366;2023-08-08T00:48:21;16.30;99.90
14531;DHT22;7352;50.866;4.366;2023-08-08T00:50:48;16.30;99.90
14531;DHT22;7352;50.866;4.366;2023-08-08T00:53:17;16.30;99.90
14531;DHT22;7352;50.866;4.366;2023-08-08T00:55:45;16.30;99.90
14531;DHT22;7352;50.866;4.366;2023-08-08T00:58:15;16.20;99.90
14531;DHT22;7352;50.866;4.366;2023-08-08T01:00:42;16.20;99.90
14531;DHT22;7352;50.866;4.366;2023-08-08T01:03:11;16.20;99.90
14531;DHT22;7352;50.866;4.366;2023-08-08T01:05:43;16.20;99.90
14531;DHT22;7352;50.866;4.366;2023-08-08T01:08:16;16.00;99.90
14531;DHT22;7352;50.866;4.366;2023-08-08T01:10:52;16.00;99.90
14531;DHT22;7352;50.866;4.366;2023-08-08T01:13:39;16.00;99.90
14531;DHT22;7352;50.866;4.366;2023-08-08T01:16:09;16.00;99.90
14531;DHT22;7352;50.866;4.366;2023-08-08T01:18:38;16.00;99.90
14531;DHT22;7352;50.866;4.366;2023-08-08T01:21:06;16.00;99.90
14531;DHT22;7352;50.866;4.366;2023-08-08T01:23:42;16.00;99.90
14531;DHT22;7352;50.866;4.366;2023-08-08T01:26:12;15.90;99.90
14531;DHT22;7352;50.866;4.366;2023-08-08T01:28:39;15.90;99.90
14531;DHT22;7352;50.866;4.366;2023-08-08T01:31:06;15.80;99.90
14531;DHT22;7352;50.866;4.366;2023-08-08T01:33:33;15.90;99.90
14531;DHT22;7352;50.866;4.366;2023-08-08T01:36:04;15.90;99.90
14531;DHT22;7352;50.866;4.366;2023-08-08T01:38:43;15.90;99.90
14531;DHT22;7352;50.866;4.366;2023-08-08T01:41:13;15.80;99.90
14531;DHT22;7352;50.866;4.366;2023-08-08T01:43:41;15.90;99.90
14531;DHT22;7352;50.866;4.366;2023-08-08T01:46:08;16.00;99.90
14531;DHT22;7352;50.866;4.366;2023-08-08T01:48:36;16.20;99.90
14531;DHT22;7352;50.866;4.366;2023-08-08T01:51:03;16.00;99.90
14531;DHT22;7352;50.866;4.366;2023-08-08T01:53:30;16.00;99.90
14531;DHT22;7352;50.866;4.366;2023-08-08T01:55:57;16.00;99.90
14531;DHT22;7352;50.866;4.366;2023-08-08T01:58:26;15.90;99.90
14531;DHT22;7352;50.866;4.366;2023-08-08T02:00:53;16.00;99.90
14531;DHT22;7352;50.866;4.366;2023-08-08T02:03:20;15.90;99.90
14531;DHT22;7352;50.866;4.366;2023-08-08T02:05:51;15.80;99.90
14531;DHT22;7352;50.866;4.366;2023-08-08T02:08:18;16.00;99.90
14531;DHT22;7352;50.866;4.366;2023-08-08T02:10:46;15.90;99.90
14531;DHT22;7352;50.866;4.366;2023-08-08T02:13:21;15.90;99.90
14531;DHT22;7352;50.866;4.366;2023-08-08T02:16:11;15.80;99.90
14531;DHT22;7352;50.866;4.366;2023-08-08T02:18:39;15.80;99.90
14531;DHT22;7352;50.866;4.366;2023-08-08T02:21:08;15.80;99.90
14531;DHT22;7352;50.866;4.366;2023-08-08T02:23:35;15.70;99.90
14531;DHT22;7352;50.866;4.366;2023-08-08T02:26:03;15.90;99.90
14531;DHT22;7352;50.866;4.366;2023-08-08T02:28:36;15.70;99.90
14531;DHT22;7352;50.866;4.366;2023-08-08T02:31:03;15.70;99.90
14531;DHT22;7352;50.866;4.366;2023-08-08T02:33:32;15.60;99.90
14531;DHT22;7352;50.866;4.366;2023-08-08T02:35:59;15.60;99.90
14531;DHT22;7352;50.866;4.366;2023-08-08T02:38:26;15.50;99.90
14531;DHT22;7352;50.866;4.366;2023-08-08T02:41:05;15.50;99.90
14531;DHT22;7352;50.866;4.366;2023-08-08T02:43:38;15.50;99.90
14531;DHT22;7352;50.866;4.366;2023-08-08T02:46:07;15.50;99.90
14531;DHT22;7352;50.866;4.366;2023-08-08T02:48:35;15.50;99.90
14531;DHT22;7352;50.866;4.366;2023-08-08T02:51:03;15.60;99.90
14531;DHT22;7352;50.866;4.366;2023-08-08T02:53:33;15.60;99.90
14531;DHT22;7352;50.866;4.366;2023-08-08T02:56:00;15.60;99.90
14531;DHT22;7352;50.866;4.366;2023-08-08T02:58:27;15.40;99.90
14531;DHT22;7352;50.866;4.366;2023-08-08T03:01:17;15.50;99.90
14531;DHT22;7352;50.866;4.366;2023-08-08T03:03:46;15.60;99.90
14531;DHT22;7352;50.866;4.366;2023-08-08T03:06:13;15.60;99.90
14531;DHT22;7352;50.866;4.366;2023-08-08T03:08:40;15.40;99.90
14531;DHT22;7352;50.866;4.366;2023-08-08T03:11:07;15.50;99.90
14531;DHT22;7352;50.866;4.366;2023-08-08T03:13:35;15.50;99.90
14531;DHT22;7352;50.866;4.366;2023-08-08T03:16:03;15.40;99.90
14531;DHT22;7352;50.866;4.366;2023-08-08T03:18:33;15.50;99.90
14531;DHT22;7352;50.866;4.366;2023-08-08T03:21:05;15.40;99.90
14531;DHT22;7352;50.866;4.366;2023-08-08T03:23:32;15.30;99.90
14531;DHT22;7352;50.866;4.366;2023-08-08T03:25:59;15.30;99.90
14531;DHT22;7352;50.866;4.366;2023-08-08T03:28:26;15.30;99.90
14531;DHT22;7352;50.866;4.366;2023-08-08T03:30:53;15.40;99.90
14531;DHT22;7352;50.866;4.366;2023-08-08T03:33:21;15.30;99.90
14531;DHT22;7352;50.866;4.366;2023-08-08T03:35:48;15.30;99.90
14531;DHT22;7352;50.866;4.366;2023-08-08T03:38:33;15.10;99.90
14531;DHT22;7352;50.866;4.366;2023-08-08T03:41:11;15.10;99.90
14531;DHT22;7352;50.866;4.366;2023-08-08T03:43:39;15.20;99.90
14531;DHT22;7352;50.866;4.366;2023-08-08T03:46:06;15.10;99.90
14531;DHT22;7352;50.866;4.366;2023-08-08T03:48:33;15.00;99.90
14531;DHT22;7352;50.866;4.366;2023-08-08T03:51:00;14.90;99.90
14531;DHT22;7352;50.866;4.366;2023-08-08T03:53:27;14.80;99.90
14531;DHT22;7352;50.866;4.366;2023-08-08T03:55:56;14.80;99.90
14531;DHT22;7352;50.866;4.366;2023-08-08T03:58:24;14.90;99.90
14531;DHT22;7352;50.866;4.366;2023-08-08T04:00:51;14.80;99.90
14531;DHT22;7352;50.866;4.366;2023-08-08T04:03:19;14.80;99.90
14531;DHT22;7352;50.866;4.366;2023-08-08T04:05:47;14.80;99.90
14531;DHT22;7352;50.866;4.366;2023-08-08T04:08:15;14.70;99.90
14531;DHT22;7352;50.866;4.366;2023-08-08T04:10:46;14.70;99.90
14531;DHT22;7352;50.866;4.366;2023-08-08T04:13:18;14.80;99.90
14531;DHT22;7352;50.866;4.366;2023-08-08T04:15:46;14.80;99.90
14531;DHT22;7352;50.866;4.366;2023-08-08T04:18:13;14.90;99.90
14531;DHT22;7352;50.866;4.366;2023-08-08T04:20:41;14.80;99.90
14531;DHT22;7352;50.866;4.366;2023-08-08T04:23:08;14.80;99.90
14531;DHT22;7352;50.866;4.366;2023-08-08T04:25:36;14.90;99.90
14531;DHT22;7352;50.866;4.366;2023-08-08T04:28:03;14.90;99.90
14531;DHT22;7352;50.866;4.366;2023-08-08T04:30:32;15.00;99.90
14531;DHT22;7352;50.866;4.366;2023-08-08T04:33:00;14.90;99.90
14531;DHT22;7352;50.866;4.366;2023-08-08T04:35:28;14.90;99.90
14531;DHT22;7352;50.866;4.366;2023-08-08T04:37:55;15.00;99.90
14531;DHT22;7352;50.866;4.366;2023-08-08T04:40:22;15.00;99.90
14531;DHT22;7352;50.866;4.366;2023-08-08T04:42:49;15.10;99.90
14531;DHT22;7352;50.866;4.366;2023-08-08T04:45:16;15.10;99.90
14531;DHT22;7352;50.866;4.366;2023-08-08T04:47:45;15.10;99.90
14531;DHT22;7352;50.866;4.366;2023-08-08T04:50:12;15.10;99.90
14531;DHT22;7352;50.866;4.366;2023-08-08T04:52:39;15.10;99.90
14531;DHT22;7352;50.866;4.366;2023-08-08T04:55:07;15.10;99.90
14531;DHT22;7352;50.866;4.366;2023-08-08T04:57:34;15.20;99.90
14531;DHT22;7352;50.866;4.366;2023-08-08T05:00:02;15.10;99.90
14531;DHT22;7352;50.866;4.366;2023-08-08T05:02:32;15.20;99.90
14531;DHT22;7352;50.866;4.366;2023-08-08T05:05:01;15.10;99.90
14531;DHT22;7352;50.866;4.366;2023-08-08T05:07:29;15.20;99.90
14531;DHT22;7352;50.866;4.366;2023-08-08T05:09:56;15.20;99.90
14531;DHT22;7352;50.866;4.366;2023-08-08T05:12:30;15.20;99.90
14531;DHT22;7352;50.866;4.366;2023-08-08T05:14:57;15.20;99.90
14531;DHT22;7352;50.866;4.366;2023-08-08T05:17:25;15.10;99.90
14531;DHT22;7352;50.866;4.366;2023-08-08T05:19:53;15.10;99.90
14531;DHT22;7352;50.866;4.366;2023-08-08T05:22:21;15.20;99.90
14531;DHT22;7352;50.866;4.366;2023-08-08T05:24:48;15.10;99.90
14531;DHT22;7352;50.866;4.366;2023-08-08T05:27:15;15.10;99.90
14531;DHT22;7352;50.866;4.366;2023-08-08T05:29:43;15.20;99.90
14531;DHT22;7352;50.866;4.366;2023-08-08T05:32:11;15.30;99.90
14531;DHT22;7352;50.866;4.366;2023-08-08T05:34:45;15.20;99.90
14531;DHT22;7352;50.866;4.366;2023-08-08T05:37:14;15.40;99.90
14531;DHT22;7352;50.866;4.366;2023-08-08T05:39:49;15.40;99.90
14531;DHT22;7352;50.866;4.366;2023-08-08T05:42:16;15.50;99.90
14531;DHT22;7352;50.866;4.366;2023-08-08T05:44:43;15.60;99.90
14531;DHT22;7352;50.866;4.366;2023-08-08T05:47:10;15.70;99.90
14531;DHT22;7352;50.866;4.366;2023-08-08T05:49:40;15.80;99.90
14531;DHT22;7352;50.866;4.366;2023-08-08T05:52:09;15.90;99.90
14531;DHT22;7352;50.866;4.366;2023-08-08T05:54:36;15.90;99.90
14531;DHT22;7352;50.866;4.366;2023-08-08T05:57:05;15.70;99.90
14531;DHT22;7352;50.866;4.366;2023-08-08T05:59:32;15.70;99.90
14531;DHT22;7352;50.866;4.366;2023-08-08T06:01:59;15.70;99.90
14531;DHT22;7352;50.866;4.366;2023-08-08T06:04:26;15.70;99.90
14531;DHT22;7352;50.866;4.366;2023-08-08T06:06:54;15.80;99.90
14531;DHT22;7352;50.866;4.366;2023-08-08T06:09:21;15.70;99.90
14531;DHT22;7352;50.866;4.366;2023-08-08T06:11:48;15.70;99.90
14531;DHT22;7352;50.866;4.366;2023-08-08T06:14:17;15.70;99.90
14531;DHT22;7352;50.866;4.366;2023-08-08T06:16:44;15.70;99.90
14531;DHT22;7352;50.866;4.366;2023-08-08T06:19:12;15.90;99.90
14531;DHT22;7352;50.866;4.366;2023-08-08T06:21:40;16.00;99.90
14531;DHT22;7352;50.866;4.366;2023-08-08T06:24:09;16.10;99.90
14531;DHT22;7352;50.866;4.366;2023-08-08T06:26:36;16.30;99.90
14531;DHT22;7352;50.866;4.366;2023-08-08T06:29:04;16.40;99.90
14531;DHT22;7352;50.866;4.366;2023-08-08T06:31:33;16.60;99.90
14531;DHT22;7352;50.866;4.366;2023-08-08T06:34:00;16.70;99.90
14531;DHT22;7352;50.866;4.366;2023-08-08T06:36:30;16.80;99.90
14531;DHT22;7352;50.866;4.366;2023-08-08T06:38:57;16.90;99.90
14531;DHT22;7352;50.866;4.366;2023-08-08T06:41:24;17.10;99.90
14531;DHT22;7352;50.866;4.366;2023-08-08T06:43:51;17.20;99.90
14531;DHT22;7352;50.866;4.366;2023-08-08T06:46:19;17.40;99.90
14531;DHT22;7352;50.866;4.366;2023-08-08T06:48:48;17.40;99.90
14531;DHT22;7352;50.866;4.366;2023-08-08T06:51:16;17.40;99.90
14531;DHT22;7352;50.866;4.366;2023-08-08T06:53:43;17.50;99.90
14531;DHT22;7352;50.866;4.366;2023-08-08T06:56:10;17.50;99.90
14531;DHT22;7352;50.866;4.366;2023-08-08T06:58:37;17.60;99.90
14531;DHT22;7352;50.866;4.366;2023-08-08T07:01:04;17.70;99.90
14531;DHT22;7352;50.866;4.366;2023-08-08T07:03:32;17.70;99.90
14531;DHT22;7352;50.866;4.366;2023-08-08T07:06:00;17.70;99.90
14531;DHT22;7352;50.866;4.366;2023-08-08T07:08:27;18.00;99.90
14531;DHT22;7352;50.866;4.366;2023-08-08T07:10:57;18.20;99.90
14531;DHT22;7352;50.866;4.366;2023-08-08T07:13:24;18.20;99.90
14531;DHT22;7352;50.866;4.366;2023-08-08T07:15:51;18.20;99.90
14531;DHT22;7352;50.866;4.366;2023-08-08T07:18:18;18.20;99.90
14531;DHT22;7352;50.866;4.366;2023-08-08T07:20:45;18.10;99.90
14531;DHT22;7352;50.866;4.366;2023-08-08T07:23:14;18.10;99.90
14531;DHT22;7352;50.866;4.366;2023-08-08T07:25:41;18.30;99.90
14531;DHT22;7352;50.866;4.366;2023-08-08T07:28:09;18.40;99.90
14531;DHT22;7352;50.866;4.366;2023-08-08T07:30:36;18.50;99.90
14531;DHT22;7352;50.866;4.366;2023-08-08T07:33:05;18.70;99.90
14531;DHT22;7352;50.866;4.366;2023-08-08T07:35:34;18.60;99.90
14531;DHT22;7352;50.866;4.366;2023-08-08T07:38:01;18.40;99.90
14531;DHT22;7352;50.866;4.366;2023-08-08T07:40:37;18.40;99.90
14531;DHT22;7352;50.866;4.366;2023-08-08T07:43:07;18.40;99.90
14531;DHT22;7352;50.866;4.366;2023-08-08T07:45:35;18.30;99.90
14531;DHT22;7352;50.866;4.366;2023-08-08T07:48:03;18.70;99.90
14531;DHT22;7352;50.866;4.366;2023-08-08T07:50:30;18.80;99.90
14531;DHT22;7352;50.866;4.366;2023-08-08T07:52:57;18.80;99.90
14531;DHT22;7352;50.866;4.366;2023-08-08T07:55:25;18.70;99.90
14531;DHT22;7352;50.866;4.366;2023-08-08T07:57:53;18.80;99.90
14531;DHT22;7352;50.866;4.366;2023-08-08T08:00:20;18.90;99.90
14531;DHT22;7352;50.866;4.366;2023-08-08T08:02:47;19.00;99.90
14531;DHT22;7352;50.866;4.366;2023-08-08T08:05:14;19.10;99.90
14531;DHT22;7352;50.866;4.366;2023-08-08T08:07:41;19.10;99.90
14531;DHT22;7352;50.866;4.366;2023-08-08T08:10:11;19.00;99.90
14531;DHT22;7352;50.866;4.366;2023-08-08T08:12:40;19.00;99.90
14531;DHT22;7352;50.866;4.366;2023-08-08T08:15:10;19.10;99.90
14531;DHT22;7352;50.866;4.366;2023-08-08T08:17:39;19.20;99.90
14531;DHT22;7352;50.866;4.366;2023-08-08T08:20:08;19.20;99.90
14531;DHT22;7352;50.866;4.366;2023-08-08T08:22:37;19.20;99.90
14531;DHT22;7352;50.866;4.366;2023-08-08T08:25:07;19.20;99.90
14531;DHT22;7352;50.866;4.366;2023-08-08T08:27:39;19.20;99.90
14531;DHT22;7352;50.866;4.366;2023-08-08T08:30:08;19.20;99.90
14531;DHT22;7352;50.866;4.366;2023-08-08T08:32:36;19.20;99.90
14531;DHT22;7352;50.866;4.366;2023-08-08T08:35:04;19.20;99.90
14531;DHT22;7352;50.866;4.366;2023-08-08T08:37:32;19.20;99.90
14531;DHT22;7352;50.866;4.366;2023-08-08T08:39:59;19.40;99.90
14531;DHT22;7352;50.866;4.366;2023-08-08T08:42:28;19.60;99.90
14531;DHT22;7352;50.866;4.366;2023-08-08T08:44:57;19.50;99.90
14531;DHT22;7352;50.866;4.366;2023-08-08T08:47:29;19.40;99.90
14531;DHT22;7352;50.866;4.366;2023-08-08T08:49:58;19.50;99.90
14531;DHT22;7352;50.866;4.366;2023-08-08T08:52:26;19.50;99.90
14531;DHT22;7352;50.866;4.366;2023-08-08T08:54:54;19.50;99.90
14531;DHT22;7352;50.866;4.366;2023-08-08T08:57:21;19.80;99.90
14531;DHT22;7352;50.866;4.366;2023-08-08T08:59:49;19.90;99.90
14531;DHT22;7352;50.866;4.366;2023-08-08T09:02:17;19.80;99.90
14531;DHT22;7352;50.866;4.366;2023-08-08T09:04:46;19.70;99.90
14531;DHT22;7352;50.866;4.366;2023-08-08T09:07:15;19.70;99.90
14531;DHT22;7352;50.866;4.366;2023-08-08T09:09:43;19.90;99.90
14531;DHT22;7352;50.866;4.366;2023-08-08T09:12:10;20.00;99.90
14531;DHT22;7352;50.866;4.366;2023-08-08T09:14:40;20.20;99.90
14531;DHT22;7352;50.866;4.366;2023-08-08T09:17:11;20.50;99.90
14531;DHT22;7352;50.866;4.366;2023-08-08T09:19:38;20.60;99.90
14531;DHT22;7352;50.866;4.366;2023-08-08T09:22:07;20.60;99.90
14531;DHT22;7352;50.866;4.366;2023-08-08T09:24:38;20.80;99.90
14531;DHT22;7352;50.866;4.366;2023-08-08T09:27:05;20.70;99.90
14531;DHT22;7352;50.866;4.366;2023-08-08T09:29:34;20.90;99.90
14531;DHT22;7352;50.866;4.366;2023-08-08T09:32:03;20.90;99.90
14531;DHT22;7352;50.866;4.366;2023-08-08T09:34:34;20.70;99.90
14531;DHT22;7352;50.866;4.366;2023-08-08T09:37:09;20.60;99.90
14531;DHT22;7352;50.866;4.366;2023-08-08T09:40:19;20.80;99.90
14531;DHT22;7352;50.866;4.366;2023-08-08T09:42:47;21.00;99.90
14531;DHT22;7352;50.866;4.366;2023-08-08T09:45:16;20.90;99.90
14531;DHT22;7352;50.866;4.366;2023-08-08T09:47:43;20.90;99.90
14531;DHT22;7352;50.866;4.366;2023-08-08T09:50:10;20.90;99.90
14531;DHT22;7352;50.866;4.366;2023-08-08T09:52:42;20.90;99.90
14531;DHT22;7352;50.866;4.366;2023-08-08T09:55:11;20.90;99.90
14531;DHT22;7352;50.866;4.366;2023-08-08T09:57:39;21.00;99.90
14531;DHT22;7352;50.866;4.366;2023-08-08T10:00:08;21.40;99.90
14531;DHT22;7352;50.866;4.366;2023-08-08T10:02:42;21.40;99.90
14531;DHT22;7352;50.866;4.366;2023-08-08T10:05:12;21.20;99.90
14531;DHT22;7352;50.866;4.366;2023-08-08T10:07:42;21.10;99.90
14531;DHT22;7352;50.866;4.366;2023-08-08T10:10:11;21.00;99.90
14531;DHT22;7352;50.866;4.366;2023-08-08T10:12:39;20.90;99.90
14531;DHT22;7352;50.866;4.366;2023-08-08T10:15:08;20.80;99.90
14531;DHT22;7352;50.866;4.366;2023-08-08T10:17:37;20.80;99.90
14531;DHT22;7352;50.866;4.366;2023-08-08T10:20:06;20.70;99.90
14531;DHT22;7352;50.866;4.366;2023-08-08T10:22:43;20.60;99.90
14531;DHT22;7352;50.866;4.366;2023-08-08T10:25:18;20.60;99.90
14531;DHT22;7352;50.866;4.366;2023-08-08T10:27:46;20.70;99.90
14531;DHT22;7352;50.866;4.366;2023-08-08T10:30:13;20.70;99.90
14531;DHT22;7352;50.866;4.366;2023-08-08T10:32:42;20.70;99.90
14531;DHT22;7352;50.866;4.366;2023-08-08T10:35:11;20.70;99.90
14531;DHT22;7352;50.866;4.366;2023-08-08T10:37:53;20.70;99.90
14531;DHT22;7352;50.866;4.366;2023-08-08T10:40:24;20.90;99.90
14531;DHT22;7352;50.866;4.366;2023-08-08T10:43:09;21.00;99.90
14531;DHT22;7352;50.866;4.366;2023-08-08T10:45:46;21.00;99.90
14531;DHT22;7352;50.866;4.366;2023-08-08T10:48:18;20.90;99.90
14531;DHT22;7352;50.866;4.366;2023-08-08T10:50:46;20.80;99.90
14531;DHT22;7352;50.866;4.366;2023-08-08T10:53:22;20.60;99.90
14531;DHT22;7352;50.866;4.366;2023-08-08T10:56:02;20.70;99.90
14531;DHT22;7352;50.866;4.366;2023-08-08T10:58:38;20.60;99.90
14531;DHT22;7352;50.866;4.366;2023-08-08T11:01:12;20.50;99.90
14531;DHT22;7352;50.866;4.366;2023-08-08T11:03:40;20.60;99.90
14531;DHT22;7352;50.866;4.366;2023-08-08T11:06:14;20.70;99.90
14531;DHT22;7352;50.866;4.366;2023-08-08T11:08:42;20.90;99.90
14531;DHT22;7352;50.866;4.366;2023-08-08T11:11:10;21.10;99.90
14531;DHT22;7352;50.866;4.366;2023-08-08T11:13:38;21.10;99.90
14531;DHT22;7352;50.866;4.366;2023-08-08T11:16:05;21.10;99.90
14531;DHT22;7352;50.866;4.366;2023-08-08T11:18:33;21.20;99.90
14531;DHT22;7352;50.866;4.366;2023-08-08T11:21:09;21.50;99.90
14531;DHT22;7352;50.866;4.366;2023-08-08T11:23:37;22.00;99.90
14531;DHT22;7352;50.866;4.366;2023-08-08T11:26:06;22.10;99.90
14531;DHT22;7352;50.866;4.366;2023-08-08T11:28:33;22.10;99.90
14531;DHT22;7352;50.866;4.366;2023-08-08T11:31:02;21.80;99.90
14531;DHT22;7352;50.866;4.366;2023-08-08T11:33:47;21.70;99.90
14531;DHT22;7352;50.866;4.366;2023-08-08T11:36:48;21.60;99.90
14531;DHT22;7352;50.866;4.366;2023-08-08T11:39:37;21.60;99.90
14531;DHT22;7352;50.866;4.366;2023-08-08T11:42:41;21.70;99.30
14531;DHT22;7352;50.866;4.366;2023-08-08T11:45:19;21.90;99.40
14531;DHT22;7352;50.866;4.366;2023-08-08T11:48:15;21.90;98.80
14531;DHT22;7352;50.866;4.366;2023-08-08T11:56:21;21.50;99.90
14531;DHT22;7352;50.866;4.366;2023-08-08T12:06:14;21.90;99.70
14531;DHT22;7352;50.866;4.366;2023-08-08T12:09:10;22.00;99.30
14531;DHT22;7352;50.866;4.366;2023-08-08T12:12:33;21.70;99.40
14531;DHT22;7352;50.866;4.366;2023-08-08T12:18:53;21.50;99.40
14531;DHT22;7352;50.866;4.366;2023-08-08T12:28:53;22.20;99.20
14531;DHT22;7352;50.866;4.366;2023-08-08T12:31:26;22.20;99.30
14531;DHT22;7352;50.866;4.366;2023-08-08T12:34:02;22.30;99.50
14531;DHT22;7352;50.866;4.366;2023-08-08T12:43:42;22.40;99.50
14531;DHT22;7352;50.866;4.366;2023-08-08T12:46:28;22.40;99.20
14531;DHT22;7352;50.866;4.366;2023-08-08T12:49:01;22.30;98.70
14531;DHT22;7352;50.866;4.366;2023-08-08T12:51:34;22.40;98.80
14531;DHT22;7352;50.866;4.366;2023-08-08T12:54:17;22.30;98.70
14531;DHT22;7352;50.866;4.366;2023-08-08T12:56:45;22.30;99.10
14531;DHT22;7352;50.866;4.366;2023-08-08T12:59:21;22.40;98.70
14531;DHT22;7352;50.866;4.366;2023-08-08T13:09:38;22.70;98.60
14531;DHT22;7352;50.866;4.366;2023-08-08T13:15:31;22.60;97.90
14531;DHT22;7352;50.866;4.366;2023-08-08T13:17:58;22.70;97.50
14531;DHT22;7352;50.866;4.366;2023-08-08T13:27:05;22.70;98.30
14531;DHT22;7352;50.866;4.366;2023-08-08T13:30:08;22.50;98.70
14531;DHT22;7352;50.866;4.366;2023-08-08T13:32:38;22.40;98.70
14531;DHT22;7352;50.866;4.366;2023-08-08T13:35:15;22.20;98.80
14531;DHT22;7352;50.866;4.366;2023-08-08T13:37:45;22.20;99.10
14531;DHT22;7352;50.866;4.366;2023-08-08T13:40:34;22.40;99.10
14531;DHT22;7352;50.866;4.366;2023-08-08T13:43:07;22.90;99.50
14531;DHT22;7352;50.866;4.366;2023-08-08T13:46:58;23.30;98.10
14531;DHT22;7352;50.866;4.366;2023-08-08T13:53:15;23.80;97.30
14531;DHT22;7352;50.866;4.366;2023-08-08T14:14:15;23.50;96.90
14531;DHT22;7352;50.866;4.366;2023-08-08T14:18:41;23.40;96.90
14531;DHT22;7352;50.866;4.366;2023-08-08T14:21:49;22.90;97.60
14531;DHT22;7352;50.866;4.366;2023-08-08T14:48:01;21.50;99.70
14531;DHT22;7352;50.866;4.366;2023-08-08T15:28:59;21.20;99.90
14531;DHT22;7352;50.866;4.366;2023-08-08T15:32:19;20.90;99.90
14531;DHT22;7352;50.866;4.366;2023-08-08T15:38:54;21.00;99.90
14531;DHT22;7352;50.866;4.366;2023-08-08T16:16:18;21.30;99.90
14531;DHT22;7352;50.866;4.366;2023-08-08T16:18:50;21.30;99.90
14531;DHT22;7352;50.866;4.366;2023-08-08T16:21:18;21.00;99.90
14531;DHT22;7352;50.866;4.366;2023-08-08T16:23:56;21.00;99.90
14531;DHT22;7352;50.866;4.366;2023-08-08T16:26:24;20.80;99.90
14531;DHT22;7352;50.866;4.366;2023-08-08T16:28:54;20.70;99.90
14531;DHT22;7352;50.866;4.366;2023-08-08T16:31:32;20.60;99.90
14531;DHT22;7352;50.866;4.366;2023-08-08T16:34:16;20.50;99.90
14531;DHT22;7352;50.866;4.366;2023-08-08T16:36:44;20.40;99.90
14531;DHT22;7352;50.866;4.366;2023-08-08T16:39:18;20.40;99.90
14531;DHT22;7352;50.866;4.366;2023-08-08T16:44:34;20.10;99.90
14531;DHT22;7352;50.866;4.366;2023-08-08T16:50:38;20.00;99.90
14531;DHT22;7352;50.866;4.366;2023-08-08T16:53:13;20.00;99.90
14531;DHT22;7352;50.866;4.366;2023-08-08T16:55:42;19.70;99.90
14531;DHT22;7352;50.866;4.366;2023-08-08T16:58:43;19.70;99.90
14531;DHT22;7352;50.866;4.366;2023-08-08T17:01:28;19.80;99.90
14531;DHT22;7352;50.866;4.366;2023-08-08T17:10:34;19.80;99.90
14531;DHT22;7352;50.866;4.366;2023-08-08T17:13:18;19.70;99.90
14531;DHT22;7352;50.866;4.366;2023-08-08T17:19:19;19.50;99.90
14531;DHT22;7352;50.866;4.366;2023-08-08T17:22:25;19.50;99.90
14531;DHT22;7352;50.866;4.366;2023-08-08T17:25:03;19.30;99.90
14531;DHT22;7352;50.866;4.366;2023-08-08T17:28:07;19.20;99.90
14531;DHT22;7352;50.866;4.366;2023-08-08T17:30:35;19.30;99.90
14531;DHT22;7352;50.866;4.366;2023-08-08T17:33:05;19.30;99.90
14531;DHT22;7352;50.866;4.366;2023-08-08T17:35:43;19.30;99.90
14531;DHT22;7352;50.866;4.366;2023-08-08T17:38:12;19.10;99.90
14531;DHT22;7352;50.866;4.366;2023-08-08T17:40:39;19.20;99.90
14531;DHT22;7352;50.866;4.366;2023-08-08T17:43:12;19.20;99.90
14531;DHT22;7352;50.866;4.366;2023-08-08T17:45:40;19.30;99.90
14531;DHT22;7352;50.866;4.366;2023-08-08T17:48:07;19.20;99.90
14531;DHT22;7352;50.866;4.366;2023-08-08T17:50:45;19.20;99.90
14531;DHT22;7352;50.866;4.366;2023-08-08T17:53:12;19.20;99.90
14531;DHT22;7352;50.866;4.366;2023-08-08T17:55:48;18.90;99.90
14531;DHT22;7352;50.866;4.366;2023-08-08T17:58:20;19.00;99.90
14531;DHT22;7352;50.866;4.366;2023-08-08T18:00:47;19.10;99.90
14531;DHT22;7352;50.866;4.366;2023-08-08T18:03:18;19.00;99.90
14531;DHT22;7352;50.866;4.366;2023-08-08T18:05:46;18.80;99.90
14531;DHT22;7352;50.866;4.366;2023-08-08T18:08:13;18.90;99.90
14531;DHT22;7352;50.866;4.366;2023-08-08T18:10:41;18.80;99.90
14531;DHT22;7352;50.866;4.366;2023-08-08T18:13:08;18.70;99.90
14531;DHT22;7352;50.866;4.366;2023-08-08T18:15:37;18.80;99.90
14531;DHT22;7352;50.866;4.366;2023-08-08T18:18:08;18.90;99.90
14531;DHT22;7352;50.866;4.366;2023-08-08T18:20:36;18.80;99.90
14531;DHT22;7352;50.866;4.366;2023-08-08T18:23:03;18.60;99.90
14531;DHT22;7352;50.866;4.366;2023-08-08T18:25:30;18.60;99.90
14531;DHT22;7352;50.866;4.366;2023-08-08T18:27:58;18.70;99.90
14531;DHT22;7352;50.866;4.366;2023-08-08T18:30:25;18.70;99.90
14531;DHT22;7352;50.866;4.366;2023-08-08T18:32:54;18.70;99.90
14531;DHT22;7352;50.866;4.366;2023-08-08T18:35:22;18.80;99.90
14531;DHT22;7352;50.866;4.366;2023-08-08T18:37:50;18.80;99.90
14531;DHT22;7352;50.866;4.366;2023-08-08T18:40:17;18.90;99.90
14531;DHT22;7352;50.866;4.366;2023-08-08T18:42:46;18.70;99.90
14531;DHT22;7352;50.866;4.366;2023-08-08T18:45:16;18.60;99.90
14531;DHT22;7352;50.866;4.366;2023-08-08T18:47:45;18.50;99.90
14531;DHT22;7352;50.866;4.366;2023-08-08T18:50:14;18.50;99.90
14531;DHT22;7352;50.866;4.366;2023-08-08T18:52:42;18.50;99.90
14531;DHT22;7352;50.866;4.366;2023-08-08T18:55:36;18.50;99.90
14531;DHT22;7352;50.866;4.366;2023-08-08T18:58:15;18.50;99.90
14531;DHT22;7352;50.866;4.366;2023-08-08T19:00:46;18.50;99.90
14531;DHT22;7352;50.866;4.366;2023-08-08T19:03:16;18.40;99.90
14531;DHT22;7352;50.866;4.366;2023-08-08T19:06:04;18.50;99.90
14531;DHT22;7352;50.866;4.366;2023-08-08T19:08:31;18.50;99.90
14531;DHT22;7352;50.866;4.366;2023-08-08T19:10:58;18.30;99.90
14531;DHT22;7352;50.866;4.366;2023-08-08T19:13:26;18.30;99.90
14531;DHT22;7352;50.866;4.366;2023-08-08T19:15:53;18.20;99.90
14531;DHT22;7352;50.866;4.366;2023-08-08T19:18:20;18.10;99.90
14531;DHT22;7352;50.866;4.366;2023-08-08T19:20:48;18.10;99.90